sensor_id;sensor_type;location;lat;lon;timestamp;pressure;altitude;pressure_sealevel;temperature;humidity
31595;BME280;18200;48.726;8.892;2022-09-01T00:00:56;96974.94;;;25.22;46.66
31595;BME280;18200;48.726;8.892;2022-09-01T00:04:57;96972.69;;;25.08;46.70
31595;BME280;18200;48.726;8.892;2022-09-01T00:09:01;96974.59;;;25.20;46.63
31595;BME280;18200;48.726;8.892;2022-09-01T00:13:02;96974.50;;;24.89;46.77
31595;BME280;18200;48.726;8.892;2022-09-01T00:17:09;96976.19;;;24.36;47.93
31595;BME280;18200;48.726;8.892;2022-09-01T00:21:10;96971.31;;;24.91;46.52
31595;BME280;18200;48.726;8.892;2022-09-01T00:25:11;96976.16;;;24.87;47.08
31595;BME280;18200;48.726;8.892;2022-09-01T00:29:11;96968.09;;;24.92;46.75
31595;BME280;18200;48.726;8.892;2022-09-01T00:33:12;96971.56;;;24.58;47.47
31595;BME280;18200;48.726;8.892;2022-09-01T00:37:13;96973.31;;;24.02;49.18
31595;BME280;18200;48.726;8.892;2022-09-01T00:41:14;96970.69;;;24.61;48.74
31595;BME280;18200;48.726;8.892;2022-09-01T00:45:15;96969.91;;;24.61;48.30
31595;BME280;18200;48.726;8.892;2022-09-01T00:49:30;96977.47;;;24.70;47.62
31595;BME280;18200;48.726;8.892;2022-09-01T00:53:31;96976.06;;;24.65;48.60
31595;BME280;18200;48.726;8.892;2022-09-01T00:57:33;96970.75;;;24.83;48.20
31595;BME280;18200;48.726;8.892;2022-09-01T01:01:34;96972.53;;;24.77;48.00
31595;BME280;18200;48.726;8.892;2022-09-01T01:05:38;96972.59;;;24.99;48.24
31595;BME280;18200;48.726;8.892;2022-09-01T01:09:42;96974.88;;;25.00;47.60
31595;BME280;18200;48.726;8.892;2022-09-01T01:13:50;96969.56;;;24.72;48.17
31595;BME280;18200;48.726;8.892;2022-09-01T01:17:51;96967.28;;;24.20;49.45
31595;BME280;18200;48.726;8.892;2022-09-01T01:21:52;96968.28;;;24.13;49.28
31595;BME280;18200;48.726;8.892;2022-09-01T01:26:12;96960.47;;;24.49;49.00
31595;BME280;18200;48.726;8.892;2022-09-01T01:30:15;96955.81;;;24.84;48.15
31595;BME280;18200;48.726;8.892;2022-09-01T01:34:17;96959.16;;;25.01;48.23
31595;BME280;18200;48.726;8.892;2022-09-01T01:38:19;96961.13;;;25.13;47.44
31595;BME280;18200;48.726;8.892;2022-09-01T01:42:23;96963.56;;;24.98;47.42
31595;BME280;18200;48.726;8.892;2022-09-01T01:46:24;96959.06;;;24.92;47.98
31595;BME280;18200;48.726;8.892;2022-09-01T01:50:28;96964.06;;;24.72;47.91
31595;BME280;18200;48.726;8.892;2022-09-01T01:54:32;96960.44;;;25.09;47.40
31595;BME280;18200;48.726;8.892;2022-09-01T01:58:33;96968.88;;;24.93;48.06
31595;BME280;18200;48.726;8.892;2022-09-01T02:02:36;96968.59;;;24.65;47.93
31595;BME280;18200;48.726;8.892;2022-09-01T02:06:38;96969.47;;;24.62;48.14
31595;BME280;18200;48.726;8.892;2022-09-01T02:10:47;96966.44;;;24.95;47.87
31595;BME280;18200;48.726;8.892;2022-09-01T02:14:48;96971.34;;;24.65;48.20
31595;BME280;18200;48.726;8.892;2022-09-01T02:18:50;96962.63;;;24.80;47.79
31595;BME280;18200;48.726;8.892;2022-09-01T02:22:51;96963.59;;;24.86;48.15
31595;BME280;18200;48.726;8.892;2022-09-01T02:26:54;96963.59;;;24.73;47.70
31595;BME280;18200;48.726;8.892;2022-09-01T02:30:56;96962.56;;;24.20;49.06
31595;BME280;18200;48.726;8.892;2022-09-01T02:34:58;96962.56;;;24.45;48.10
31595;BME280;18200;48.726;8.892;2022-09-01T02:39:00;96958.00;;;24.64;47.70
31595;BME280;18200;48.726;8.892;2022-09-01T02:43:01;96963.09;;;24.65;47.35
31595;BME280;18200;48.726;8.892;2022-09-01T02:47:01;96956.75;;;24.31;47.21
31595;BME280;18200;48.726;8.892;2022-09-01T02:51:07;96967.59;;;24.59;46.75
31595;BME280;18200;48.726;8.892;2022-09-01T02:55:08;96961.44;;;24.81;46.71
31595;BME280;18200;48.726;8.892;2022-09-01T02:59:09;96963.41;;;24.67;46.69
31595;BME280;18200;48.726;8.892;2022-09-01T03:03:11;96962.03;;;24.25;47.41
31595;BME280;18200;48.726;8.892;2022-09-01T03:07:12;96960.66;;;23.22;49.75
31595;BME280;18200;48.726;8.892;2022-09-01T03:11:13;96959.91;;;22.93;50.85
31595;BME280;18200;48.726;8.892;2022-09-01T03:15:13;96956.53;;;23.59;49.38
31595;BME280;18200;48.726;8.892;2022-09-01T03:19:16;96955.22;;;23.51;49.46
31595;BME280;18200;48.726;8.892;2022-09-01T03:23:18;96961.31;;;23.83;48.32
31595;BME280;18200;48.726;8.892;2022-09-01T03:27:18;96956.47;;;23.87;48.52
31595;BME280;18200;48.726;8.892;2022-09-01T03:31:19;96955.03;;;23.83;48.40
31595;BME280;18200;48.726;8.892;2022-09-01T03:35:24;96950.88;;;23.78;48.69
31595;BME280;18200;48.726;8.892;2022-09-01T03:39:25;96958.88;;;23.73;48.63
31595;BME280;18200;48.726;8.892;2022-09-01T03:43:28;96953.97;;;23.93;48.38
31595;BME280;18200;48.726;8.892;2022-09-01T03:47:28;96952.41;;;23.92;47.42
31595;BME280;18200;48.726;8.892;2022-09-01T03:51:28;96944.84;;;23.96;48.48
31595;BME280;18200;48.726;8.892;2022-09-01T03:55:32;96942.00;;;23.74;47.16
31595;BME280;18200;48.726;8.892;2022-09-01T03:59:33;96949.28;;;24.06;48.18
31595;BME280;18200;48.726;8.892;2022-09-01T04:03:37;96952.38;;;24.08;47.69
31595;BME280;18200;48.726;8.892;2022-09-01T04:07:39;96954.44;;;24.04;47.38
31595;BME280;18200;48.726;8.892;2022-09-01T04:11:40;96950.25;;;23.87;47.23
31595;BME280;18200;48.726;8.892;2022-09-01T04:15:41;96963.97;;;23.46;48.01
31595;BME280;18200;48.726;8.892;2022-09-01T04:19:41;96972.22;;;23.30;48.38
31595;BME280;18200;48.726;8.892;2022-09-01T04:23:43;96964.09;;;22.81;49.36
31595;BME280;18200;48.726;8.892;2022-09-01T04:27:44;96963.59;;;23.15;48.77
31595;BME280;18200;48.726;8.892;2022-09-01T04:31:46;96962.91;;;23.27;48.74
31595;BME280;18200;48.726;8.892;2022-09-01T04:35:51;96967.03;;;23.48;48.18
31595;BME280;18200;48.726;8.892;2022-09-01T04:39:55;96969.50;;;23.71;47.37
31595;BME280;18200;48.726;8.892;2022-09-01T04:43:56;96963.50;;;23.76;47.55
31595;BME280;18200;48.726;8.892;2022-09-01T04:47:57;96972.63;;;23.98;47.36
31595;BME280;18200;48.726;8.892;2022-09-01T04:51:59;96971.38;;;23.61;47.23
31595;BME280;18200;48.726;8.892;2022-09-01T04:56:04;96963.16;;;23.74;47.22
31595;BME280;18200;48.726;8.892;2022-09-01T05:00:09;96970.19;;;23.75;47.52
31595;BME280;18200;48.726;8.892;2022-09-01T05:04:24;96975.63;;;23.62;47.83
31595;BME280;18200;48.726;8.892;2022-09-01T05:08:26;96976.28;;;23.54;47.62
31595;BME280;18200;48.726;8.892;2022-09-01T05:12:30;96977.25;;;23.47;47.62
31595;BME280;18200;48.726;8.892;2022-09-01T05:16:30;96969.53;;;23.83;47.56
31595;BME280;18200;48.726;8.892;2022-09-01T05:20:31;96970.09;;;23.78;47.17
31595;BME280;18200;48.726;8.892;2022-09-01T05:24:31;96979.88;;;23.92;47.61
31595;BME280;18200;48.726;8.892;2022-09-01T05:28:37;96970.75;;;23.95;47.18
31595;BME280;18200;48.726;8.892;2022-09-01T05:32:37;96975.25;;;23.89;47.61
31595;BME280;18200;48.726;8.892;2022-09-01T05:36:44;96964.28;;;23.89;47.24
31595;BME280;18200;48.726;8.892;2022-09-01T05:40:54;96967.59;;;23.55;48.56
31595;BME280;18200;48.726;8.892;2022-09-01T05:44:55;96964.16;;;23.39;48.63
31595;BME280;18200;48.726;8.892;2022-09-01T05:48:57;96971.53;;;23.26;48.96
31595;BME280;18200;48.726;8.892;2022-09-01T05:52:57;96962.72;;;23.88;47.52
31595;BME280;18200;48.726;8.892;2022-09-01T05:56:58;96960.38;;;24.15;47.42
31595;BME280;18200;48.726;8.892;2022-09-01T06:01:01;96960.47;;;24.12;48.20
31595;BME280;18200;48.726;8.892;2022-09-01T06:05:02;96958.81;;;24.39;47.30
31595;BME280;18200;48.726;8.892;2022-09-01T06:09:07;96955.72;;;23.87;48.30
31595;BME280;18200;48.726;8.892;2022-09-01T06:13:08;96949.81;;;24.26;47.48
31595;BME280;18200;48.726;8.892;2022-09-01T06:17:09;96946.97;;;24.42;47.53
31595;BME280;18200;48.726;8.892;2022-09-01T06:21:11;96956.13;;;24.74;46.44
31595;BME280;18200;48.726;8.892;2022-09-01T06:25:15;96955.13;;;24.93;46.51
31595;BME280;18200;48.726;8.892;2022-09-01T06:29:19;96964.44;;;24.36;47.02
31595;BME280;18200;48.726;8.892;2022-09-01T06:33:23;96973.19;;;24.68;46.79
31595;BME280;18200;48.726;8.892;2022-09-01T06:37:25;96970.69;;;24.11;48.17
31595;BME280;18200;48.726;8.892;2022-09-01T06:41:28;96965.84;;;24.65;48.02
31595;BME280;18200;48.726;8.892;2022-09-01T06:45:30;96960.44;;;24.87;47.33
31595;BME280;18200;48.726;8.892;2022-09-01T06:49:31;96968.31;;;24.73;47.84
31595;BME280;18200;48.726;8.892;2022-09-01T06:53:40;96967.13;;;25.20;47.39
31595;BME280;18200;48.726;8.892;2022-09-01T06:57:43;96974.44;;;25.36;47.34
31595;BME280;18200;48.726;8.892;2022-09-01T07:01:50;96977.66;;;25.56;47.39
31595;BME280;18200;48.726;8.892;2022-09-01T07:06:04;96974.03;;;26.11;46.13
31595;BME280;18200;48.726;8.892;2022-09-01T07:10:32;96976.84;;;26.21;45.62
31595;BME280;18200;48.726;8.892;2022-09-01T07:14:42;96980.38;;;26.70;45.65
31595;BME280;18200;48.726;8.892;2022-09-01T07:18:43;96980.63;;;26.45;45.60
31595;BME280;18200;48.726;8.892;2022-09-01T07:22:43;96984.59;;;26.92;45.38
31595;BME280;18200;48.726;8.892;2022-09-01T07:26:44;96980.94;;;26.96;45.25
31595;BME280;18200;48.726;8.892;2022-09-01T07:30:49;96984.63;;;27.29;44.68
31595;BME280;18200;48.726;8.892;2022-09-01T07:34:54;96982.56;;;26.75;46.71
31595;BME280;18200;48.726;8.892;2022-09-01T07:38:54;96997.97;;;27.21;45.69
31595;BME280;18200;48.726;8.892;2022-09-01T07:42:55;96992.41;;;26.94;46.17
31595;BME280;18200;48.726;8.892;2022-09-01T07:47:18;96994.59;;;27.17;45.83
31595;BME280;18200;48.726;8.892;2022-09-01T07:51:21;96991.09;;;27.53;44.53
31595;BME280;18200;48.726;8.892;2022-09-01T07:55:22;96994.25;;;27.88;43.87
31595;BME280;18200;48.726;8.892;2022-09-01T07:59:22;96998.75;;;27.40;44.32
31595;BME280;18200;48.726;8.892;2022-09-01T08:03:29;96997.31;;;28.08;43.28
31595;BME280;18200;48.726;8.892;2022-09-01T08:07:29;97004.66;;;28.53;42.51
31595;BME280;18200;48.726;8.892;2022-09-01T08:11:30;97010.53;;;27.31;44.97
31595;BME280;18200;48.726;8.892;2022-09-01T08:15:31;97012.06;;;27.96;43.50
31595;BME280;18200;48.726;8.892;2022-09-01T08:19:31;97013.91;;;27.72;44.26
31595;BME280;18200;48.726;8.892;2022-09-01T08:23:42;97011.91;;;28.50;42.50
31595;BME280;18200;48.726;8.892;2022-09-01T08:27:45;97007.53;;;28.67;41.77
31595;BME280;18200;48.726;8.892;2022-09-01T08:31:46;97009.06;;;29.25;40.59
31595;BME280;18200;48.726;8.892;2022-09-01T08:35:48;97008.13;;;29.28;39.39
31595;BME280;18200;48.726;8.892;2022-09-01T08:39:49;97014.06;;;29.35;38.24
31595;BME280;18200;48.726;8.892;2022-09-01T08:48:08;97017.19;;;29.04;38.28
31595;BME280;18200;48.726;8.892;2022-09-01T08:56:17;97024.13;;;30.00;35.73
31595;BME280;18200;48.726;8.892;2022-09-01T09:00:21;97029.56;;;29.80;36.33
31595;BME280;18200;48.726;8.892;2022-09-01T09:04:30;97027.47;;;29.75;36.63
31595;BME280;18200;48.726;8.892;2022-09-01T09:17:08;97033.34;;;29.30;38.12
31595;BME280;18200;48.726;8.892;2022-09-01T09:21:42;97032.66;;;29.35;39.20
31595;BME280;18200;48.726;8.892;2022-09-01T09:25:43;97024.88;;;29.48;37.23
31595;BME280;18200;48.726;8.892;2022-09-01T09:29:45;97031.25;;;28.92;39.44
31595;BME280;18200;48.726;8.892;2022-09-01T09:33:46;97029.59;;;30.24;36.53
31595;BME280;18200;48.726;8.892;2022-09-01T09:37:46;97035.22;;;30.29;36.40
31595;BME280;18200;48.726;8.892;2022-09-01T09:42:25;97028.72;;;30.03;36.90
31595;BME280;18200;48.726;8.892;2022-09-01T09:46:35;97029.97;;;28.69;38.50
31595;BME280;18200;48.726;8.892;2022-09-01T09:50:42;97027.88;;;29.11;39.05
31595;BME280;18200;48.726;8.892;2022-09-01T09:55:05;97023.56;;;30.25;37.63
31595;BME280;18200;48.726;8.892;2022-09-01T10:03:37;97023.38;;;30.58;35.40
31595;BME280;18200;48.726;8.892;2022-09-01T10:07:38;97021.75;;;30.86;34.81
31595;BME280;18200;48.726;8.892;2022-09-01T10:11:41;97020.16;;;30.30;36.09
31595;BME280;18200;48.726;8.892;2022-09-01T10:15:46;97025.41;;;30.78;34.66
31595;BME280;18200;48.726;8.892;2022-09-01T10:19:52;97020.75;;;31.04;33.44
31595;BME280;18200;48.726;8.892;2022-09-01T10:23:54;97020.25;;;31.40;33.49
31595;BME280;18200;48.726;8.892;2022-09-01T10:28:13;97017.31;;;31.09;32.70
31595;BME280;18200;48.726;8.892;2022-09-01T10:32:18;97016.31;;;31.52;33.09
31595;BME280;18200;48.726;8.892;2022-09-01T10:36:20;97017.78;;;31.93;32.50
31595;BME280;18200;48.726;8.892;2022-09-01T10:44:33;97012.72;;;31.66;31.71
31595;BME280;18200;48.726;8.892;2022-09-01T10:48:34;96997.94;;;32.32;31.22
31595;BME280;18200;48.726;8.892;2022-09-01T10:56:45;96997.03;;;32.14;31.12
31595;BME280;18200;48.726;8.892;2022-09-01T11:00:49;96993.44;;;32.40;32.28
31595;BME280;18200;48.726;8.892;2022-09-01T11:08:57;96991.47;;;32.82;30.32
31595;BME280;18200;48.726;8.892;2022-09-01T11:21:24;96987.81;;;33.55;28.75
31595;BME280;18200;48.726;8.892;2022-09-01T11:25:36;96992.53;;;33.38;28.74
31595;BME280;18200;48.726;8.892;2022-09-01T11:29:52;96982.53;;;33.10;29.58
31595;BME280;18200;48.726;8.892;2022-09-01T11:38:15;96991.47;;;34.11;27.78
31595;BME280;18200;48.726;8.892;2022-09-01T11:42:23;96988.56;;;33.67;29.65
31595;BME280;18200;48.726;8.892;2022-09-01T11:46:32;96992.22;;;34.12;28.89
31595;BME280;18200;48.726;8.892;2022-09-01T11:50:36;96975.22;;;32.75;29.10
31595;BME280;18200;48.726;8.892;2022-09-01T11:54:39;96976.78;;;34.05;27.73
31595;BME280;18200;48.726;8.892;2022-09-01T11:58:40;96969.09;;;33.73;29.86
31595;BME280;18200;48.726;8.892;2022-09-01T12:02:47;96977.94;;;34.98;26.70
31595;BME280;18200;48.726;8.892;2022-09-01T12:06:57;96979.56;;;35.51;25.04
31595;BME280;18200;48.726;8.892;2022-09-01T12:11:10;96969.34;;;34.85;25.97
31595;BME280;18200;48.726;8.892;2022-09-01T12:15:23;96960.25;;;34.68;26.83
31595;BME280;18200;48.726;8.892;2022-09-01T12:19:28;96956.06;;;35.71;25.75
31595;BME280;18200;48.726;8.892;2022-09-01T12:23:32;96963.59;;;36.22;26.00
31595;BME280;18200;48.726;8.892;2022-09-01T12:27:33;96957.91;;;35.63;26.05
31595;BME280;18200;48.726;8.892;2022-09-01T12:31:36;96960.66;;;36.93;25.16
31595;BME280;18200;48.726;8.892;2022-09-01T12:35:39;96961.22;;;34.87;27.07
31595;BME280;18200;48.726;8.892;2022-09-01T12:39:46;96959.03;;;36.19;25.03
31595;BME280;18200;48.726;8.892;2022-09-01T12:43:47;96955.53;;;35.72;25.97
31595;BME280;18200;48.726;8.892;2022-09-01T12:47:49;96955.00;;;35.28;26.15
31595;BME280;18200;48.726;8.892;2022-09-01T12:56:17;96948.09;;;36.75;24.88
31595;BME280;18200;48.726;8.892;2022-09-01T13:00:28;96952.84;;;35.56;24.83
31595;BME280;18200;48.726;8.892;2022-09-01T13:04:30;96953.44;;;36.19;25.29
31595;BME280;18200;48.726;8.892;2022-09-01T13:08:33;96946.50;;;35.55;24.96
31595;BME280;18200;48.726;8.892;2022-09-01T13:12:39;96949.13;;;36.18;24.73
31595;BME280;18200;48.726;8.892;2022-09-01T13:16:41;96946.22;;;36.59;25.26
31595;BME280;18200;48.726;8.892;2022-09-01T13:20:42;96941.63;;;37.10;23.63
31595;BME280;18200;48.726;8.892;2022-09-01T13:24:42;96946.03;;;34.77;26.64
31595;BME280;18200;48.726;8.892;2022-09-01T13:28:43;96930.34;;;34.41;26.46
31595;BME280;18200;48.726;8.892;2022-09-01T13:32:45;96925.47;;;35.84;25.19
31595;BME280;18200;48.726;8.892;2022-09-01T13:36:46;96926.13;;;34.97;26.25
31595;BME280;18200;48.726;8.892;2022-09-01T13:40:48;96916.66;;;34.54;26.94
31595;BME280;18200;48.726;8.892;2022-09-01T13:44:49;96920.56;;;34.97;26.92
31595;BME280;18200;48.726;8.892;2022-09-01T13:48:49;96924.94;;;35.85;25.62
31595;BME280;18200;48.726;8.892;2022-09-01T13:52:54;96915.19;;;35.16;26.71
31595;BME280;18200;48.726;8.892;2022-09-01T13:56:55;96918.75;;;36.57;24.11
31595;BME280;18200;48.726;8.892;2022-09-01T14:00:56;96921.84;;;37.21;24.58
31595;BME280;18200;48.726;8.892;2022-09-01T14:04:58;96915.09;;;34.64;28.61
31595;BME280;18200;48.726;8.892;2022-09-01T14:08:58;96911.72;;;34.99;28.58
31595;BME280;18200;48.726;8.892;2022-09-01T14:12:59;96899.66;;;33.80;29.49
31595;BME280;18200;48.726;8.892;2022-09-01T14:16:59;96908.75;;;32.46;30.77
31595;BME280;18200;48.726;8.892;2022-09-01T14:21:01;96913.06;;;33.59;27.64
31595;BME280;18200;48.726;8.892;2022-09-01T14:25:01;96914.13;;;32.50;29.35
31595;BME280;18200;48.726;8.892;2022-09-01T14:29:02;96911.00;;;33.43;27.99
31595;BME280;18200;48.726;8.892;2022-09-01T14:33:02;96904.41;;;33.41;28.31
31595;BME280;18200;48.726;8.892;2022-09-01T14:37:03;96904.22;;;34.16;26.85
31595;BME280;18200;48.726;8.892;2022-09-01T14:41:03;96902.66;;;32.79;28.84
31595;BME280;18200;48.726;8.892;2022-09-01T14:45:04;96887.50;;;33.78;27.79
31595;BME280;18200;48.726;8.892;2022-09-01T14:49:04;96896.88;;;34.08;27.36
31595;BME280;18200;48.726;8.892;2022-09-01T14:53:06;96887.25;;;34.14;27.57
31595;BME280;18200;48.726;8.892;2022-09-01T14:57:07;96882.88;;;35.21;26.89
31595;BME280;18200;48.726;8.892;2022-09-01T15:01:08;96896.59;;;34.39;27.90
31595;BME280;18200;48.726;8.892;2022-09-01T15:05:11;96888.72;;;34.60;26.84
31595;BME280;18200;48.726;8.892;2022-09-01T15:09:11;96882.63;;;35.19;26.62
31595;BME280;18200;48.726;8.892;2022-09-01T15:13:12;96890.66;;;34.81;27.17
31595;BME280;18200;48.726;8.892;2022-09-01T15:17:12;96893.97;;;34.80;27.81
31595;BME280;18200;48.726;8.892;2022-09-01T15:21:24;96884.56;;;34.88;27.94
31595;BME280;18200;48.726;8.892;2022-09-01T15:25:25;96876.28;;;35.24;27.06
31595;BME280;18200;48.726;8.892;2022-09-01T15:29:25;96874.75;;;36.28;25.56
31595;BME280;18200;48.726;8.892;2022-09-01T15:33:26;96873.69;;;36.80;24.27
31595;BME280;18200;48.726;8.892;2022-09-01T15:37:26;96870.34;;;37.05;24.04
31595;BME280;18200;48.726;8.892;2022-09-01T15:41:29;96869.56;;;37.05;24.28
31595;BME280;18200;48.726;8.892;2022-09-01T15:45:30;96866.47;;;36.66;24.44
31595;BME280;18200;48.726;8.892;2022-09-01T15:49:31;96865.75;;;36.11;24.67
31595;BME280;18200;48.726;8.892;2022-09-01T15:53:31;96859.22;;;35.68;25.12
31595;BME280;18200;48.726;8.892;2022-09-01T15:57:31;96856.66;;;36.78;24.23
31595;BME280;18200;48.726;8.892;2022-09-01T16:01:37;96854.44;;;37.13;22.89
31595;BME280;18200;48.726;8.892;2022-09-01T16:09:46;96854.50;;;37.45;22.63
31595;BME280;18200;48.726;8.892;2022-09-01T16:13:47;96847.75;;;36.98;24.12
31595;BME280;18200;48.726;8.892;2022-09-01T16:18:08;96843.81;;;36.64;23.72
31595;BME280;18200;48.726;8.892;2022-09-01T16:22:20;96839.47;;;35.90;24.25
31595;BME280;18200;48.726;8.892;2022-09-01T16:26:21;96846.75;;;36.52;23.82
31595;BME280;18200;48.726;8.892;2022-09-01T16:30:27;96846.41;;;35.78;24.41
31595;BME280;18200;48.726;8.892;2022-09-01T16:34:28;96833.91;;;36.63;24.42
31595;BME280;18200;48.726;8.892;2022-09-01T16:38:38;96838.50;;;36.84;23.79
31595;BME280;18200;48.726;8.892;2022-09-01T16:47:26;96831.22;;;36.76;24.41
31595;BME280;18200;48.726;8.892;2022-09-01T16:51:43;96828.31;;;36.14;24.58
31595;BME280;18200;48.726;8.892;2022-09-01T16:56:01;96828.66;;;36.78;23.61
31595;BME280;18200;48.726;8.892;2022-09-01T17:00:07;96830.00;;;37.27;23.76
31595;BME280;18200;48.726;8.892;2022-09-01T17:04:41;96828.22;;;35.66;24.96
31595;BME280;18200;48.726;8.892;2022-09-01T17:08:57;96829.75;;;35.67;26.01
31595;BME280;18200;48.726;8.892;2022-09-01T17:13:17;96838.34;;;34.87;26.65
31595;BME280;18200;48.726;8.892;2022-09-01T17:17:24;96833.47;;;35.40;25.75
31595;BME280;18200;48.726;8.892;2022-09-01T17:21:41;96837.09;;;35.35;25.55
31595;BME280;18200;48.726;8.892;2022-09-01T17:25:54;96842.03;;;35.18;25.59
31595;BME280;18200;48.726;8.892;2022-09-01T17:29:57;96840.31;;;35.03;25.62
31595;BME280;18200;48.726;8.892;2022-09-01T17:34:10;96848.44;;;35.01;26.25
31595;BME280;18200;48.726;8.892;2022-09-01T17:38:29;96846.66;;;34.19;26.99
31595;BME280;18200;48.726;8.892;2022-09-01T17:42:42;96856.31;;;33.74;28.29
31595;BME280;18200;48.726;8.892;2022-09-01T17:46:56;96854.03;;;34.16;27.99
31595;BME280;18200;48.726;8.892;2022-09-01T17:51:20;96854.28;;;33.96;27.87
31595;BME280;18200;48.726;8.892;2022-09-01T17:55:42;96855.31;;;33.88;28.26
31595;BME280;18200;48.726;8.892;2022-09-01T18:04:58;96863.16;;;33.61;29.50
31595;BME280;18200;48.726;8.892;2022-09-01T18:09:00;96861.13;;;33.68;28.97
31595;BME280;18200;48.726;8.892;2022-09-01T18:13:04;96869.88;;;33.16;29.71
31595;BME280;18200;48.726;8.892;2022-09-01T18:17:20;96867.63;;;33.20;29.83
31595;BME280;18200;48.726;8.892;2022-09-01T18:21:35;96861.19;;;32.92;30.70
31595;BME280;18200;48.726;8.892;2022-09-01T18:29:42;96873.50;;;33.44;29.51
31595;BME280;18200;48.726;8.892;2022-09-01T18:43:16;96878.03;;;31.93;31.57
31595;BME280;18200;48.726;8.892;2022-09-01T18:47:33;96891.25;;;31.21;33.31
31595;BME280;18200;48.726;8.892;2022-09-01T18:51:53;96898.22;;;31.36;33.12
31595;BME280;18200;48.726;8.892;2022-09-01T19:00:21;96884.19;;;31.20;34.12
31595;BME280;18200;48.726;8.892;2022-09-01T19:04:29;96884.88;;;30.95;34.61
31595;BME280;18200;48.726;8.892;2022-09-01T19:08:39;96884.78;;;31.09;33.90
31595;BME280;18200;48.726;8.892;2022-09-01T19:21:26;96890.13;;;30.32;35.48
31595;BME280;18200;48.726;8.892;2022-09-01T19:25:31;96889.97;;;29.48;37.20
31595;BME280;18200;48.726;8.892;2022-09-01T19:30:04;96886.34;;;29.86;36.57
31595;BME280;18200;48.726;8.892;2022-09-01T19:38:19;96889.41;;;29.88;36.94
31595;BME280;18200;48.726;8.892;2022-09-01T19:42:28;96897.78;;;29.50;37.84
31595;BME280;18200;48.726;8.892;2022-09-01T19:46:36;96884.25;;;29.13;38.25
31595;BME280;18200;48.726;8.892;2022-09-01T19:50:58;96884.06;;;29.41;37.74
31595;BME280;18200;48.726;8.892;2022-09-01T19:55:05;96895.91;;;29.56;37.14
31595;BME280;18200;48.726;8.892;2022-09-01T19:59:13;96893.31;;;29.38;37.09
31595;BME280;18200;48.726;8.892;2022-09-01T20:03:32;96888.53;;;29.38;37.50
31595;BME280;18200;48.726;8.892;2022-09-01T20:07:40;96889.31;;;29.00;38.54
31595;BME280;18200;48.726;8.892;2022-09-01T20:11:57;96886.78;;;28.08;40.47
31595;BME280;18200;48.726;8.892;2022-09-01T20:20:09;96887.72;;;28.37;39.43
31595;BME280;18200;48.726;8.892;2022-09-01T20:24:32;96888.16;;;28.12;39.02
31595;BME280;18200;48.726;8.892;2022-09-01T20:28:44;96879.41;;;28.14;39.60
31595;BME280;18200;48.726;8.892;2022-09-01T20:32:49;96883.41;;;28.13;39.96
31595;BME280;18200;48.726;8.892;2022-09-01T20:37:01;96884.22;;;27.26;40.62
31595;BME280;18200;48.726;8.892;2022-09-01T20:41:07;96883.56;;;27.58;40.83
31595;BME280;18200;48.726;8.892;2022-09-01T20:45:24;96883.78;;;27.88;39.60
31595;BME280;18200;48.726;8.892;2022-09-01T20:49:26;96885.13;;;27.50;39.53
31595;BME280;18200;48.726;8.892;2022-09-01T20:53:37;96881.78;;;27.10;41.23
31595;BME280;18200;48.726;8.892;2022-09-01T20:57:56;96889.06;;;26.50;42.06
31595;BME280;18200;48.726;8.892;2022-09-01T21:06:42;96885.47;;;26.22;43.00
31595;BME280;18200;48.726;8.892;2022-09-01T21:15:02;96879.03;;;26.83;41.72
31595;BME280;18200;48.726;8.892;2022-09-01T21:19:20;96882.94;;;26.46;41.69
31595;BME280;18200;48.726;8.892;2022-09-01T21:23:23;96876.53;;;25.69;43.50
31595;BME280;18200;48.726;8.892;2022-09-01T21:27:29;96877.97;;;25.09;44.79
31595;BME280;18200;48.726;8.892;2022-09-01T21:31:30;96878.47;;;24.95;45.07
31595;BME280;18200;48.726;8.892;2022-09-01T21:35:30;96882.75;;;25.61;44.25
31595;BME280;18200;48.726;8.892;2022-09-01T21:39:31;96880.22;;;26.06;42.21
31595;BME280;18200;48.726;8.892;2022-09-01T21:43:38;96881.56;;;25.40;43.72
31595;BME280;18200;48.726;8.892;2022-09-01T21:47:41;96883.28;;;25.77;43.41
31595;BME280;18200;48.726;8.892;2022-09-01T21:51:43;96870.81;;;25.94;42.57
31595;BME280;18200;48.726;8.892;2022-09-01T21:55:43;96869.53;;;25.77;43.01
31595;BME280;18200;48.726;8.892;2022-09-01T21:59:44;96874.47;;;25.82;42.45
31595;BME280;18200;48.726;8.892;2022-09-01T22:03:44;96871.84;;;25.48;42.41
31595;BME280;18200;48.726;8.892;2022-09-01T22:07:46;96866.97;;;25.52;43.01
31595;BME280;18200;48.726;8.892;2022-09-01T22:11:48;96873.69;;;24.74;44.25
31595;BME280;18200;48.726;8.892;2022-09-01T22:15:51;96871.06;;;25.26;44.14
31595;BME280;18200;48.726;8.892;2022-09-01T22:19:51;96862.09;;;25.56;42.50
31595;BME280;18200;48.726;8.892;2022-09-01T22:23:52;96859.97;;;25.38;42.90
31595;BME280;18200;48.726;8.892;2022-09-01T22:27:52;96866.78;;;25.25;43.24
31595;BME280;18200;48.726;8.892;2022-09-01T22:31:53;96857.25;;;25.17;43.89
31595;BME280;18200;48.726;8.892;2022-09-01T22:35:54;96867.78;;;24.62;44.25
31595;BME280;18200;48.726;8.892;2022-09-01T22:39:55;96853.63;;;24.17;45.53
31595;BME280;18200;48.726;8.892;2022-09-01T22:43:56;96850.50;;;24.40;45.14
31595;BME280;18200;48.726;8.892;2022-09-01T22:47:59;96861.25;;;24.82;44.42
31595;BME280;18200;48.726;8.892;2022-09-01T22:51:59;96856.34;;;25.20;43.44
31595;BME280;18200;48.726;8.892;2022-09-01T22:56:01;96853.50;;;25.02;43.54
31595;BME280;18200;48.726;8.892;2022-09-01T23:00:05;96855.31;;;25.05;43.48
31595;BME280;18200;48.726;8.892;2022-09-01T23:04:09;96859.81;;;25.11;43.24
31595;BME280;18200;48.726;8.892;2022-09-01T23:08:11;96855.16;;;24.99;43.00
31595;BME280;18200;48.726;8.892;2022-09-01T23:12:12;96856.88;;;24.84;43.06
31595;BME280;18200;48.726;8.892;2022-09-01T23:16:13;96864.34;;;24.71;42.98
31595;BME280;18200;48.726;8.892;2022-09-01T23:20:14;96859.88;;;24.64;43.89
31595;BME280;18200;48.726;8.892;2022-09-01T23:24:15;96846.94;;;24.52;42.96